createdAt,value
2017-03-26T00:00:03.422Z,0
2017-03-26T00:01:12.456Z,0
2017-03-26T00:02:21.669Z,0
2017-03-26T00:03:30.885Z,0
2017-03-26T00:04:40.114Z,0
2017-03-26T00:05:49.700Z,0
2017-03-26T00:06:58.919Z,0
2017-03-26T00:08:08.789Z,0
2017-03-26T00:09:18.662Z,0
2017-03-26T00:10:27.884Z,0
2017-03-26T00:11:37.095Z,0
2017-03-26T00:12:47.118Z,0
2017-03-26T00:13:56.992Z,0
2017-03-26T00:15:06.212Z,0
2017-03-26T00:16:15.422Z,0
2017-03-26T00:17:25.292Z,0
2017-03-26T00:18:34.506Z,0
2017-03-26T00:19:44.046Z,0
2017-03-26T00:20:53.587Z,0
2017-03-26T00:22:02.486Z,0
2017-03-26T00:23:12.355Z,0
2017-03-26T00:24:21.900Z,0
2017-03-26T00:25:31.760Z,0
2017-03-26T00:26:40.976Z,0
2017-03-26T00:27:50.843Z,0
2017-03-26T00:29:00.386Z,0
2017-03-26T00:30:09.973Z,0
2017-03-26T00:31:19.190Z,0
2017-03-26T00:32:28.079Z,0
2017-03-26T00:33:37.619Z,0
2017-03-26T00:34:46.835Z,0
2017-03-26T00:35:56.200Z,0
2017-03-26T00:37:05.088Z,0
2017-03-26T00:38:14.630Z,0
2017-03-26T00:39:24.498Z,0
2017-03-26T00:40:34.356Z,0
2017-03-26T00:41:43.723Z,0
2017-03-26T00:42:53.266Z,0
2017-03-26T00:44:02.502Z,0
2017-03-26T00:45:11.718Z,0
2017-03-26T00:46:21.303Z,0
2017-03-26T00:47:30.567Z,0
2017-03-26T00:48:39.788Z,0
2017-03-26T00:49:49.650Z,0
2017-03-26T00:50:59.191Z,0
2017-03-26T00:52:08.414Z,0
2017-03-26T00:53:18.381Z,0
2017-03-26T00:54:28.258Z,0
2017-03-26T00:55:37.793Z,0
2017-03-26T00:56:47.007Z,0
2017-03-26T00:57:55.903Z,0
2017-03-26T00:59:05.589Z,0
2017-03-26T01:00:15.121Z,0
2017-03-26T01:01:24.659Z,0
2017-03-26T01:02:33.875Z,0
2017-03-26T01:03:43.426Z,0
2017-03-26T01:04:53.364Z,0
2017-03-26T01:06:02.901Z,0
2017-03-26T01:07:12.112Z,0
2017-03-26T01:08:21.656Z,0
2017-03-26T01:09:30.879Z,0
2017-03-26T01:10:39.768Z,0
2017-03-26T01:11:49.513Z,0
2017-03-26T01:12:58.733Z,0
2017-03-26T01:14:08.271Z,0
2017-03-26T01:15:17.536Z,0
2017-03-26T01:16:26.481Z,0
2017-03-26T01:17:35.700Z,0
2017-03-26T01:18:45.891Z,0
2017-03-26T01:19:55.442Z,0
2017-03-26T01:21:04.328Z,0
2017-03-26T01:22:13.689Z,0
2017-03-26T01:23:22.580Z,0
2017-03-26T01:24:32.773Z,0
2017-03-26T01:25:41.996Z,0
2017-03-26T01:26:51.206Z,0
2017-03-26T01:28:00.470Z,0
2017-03-26T01:29:10.389Z,0
2017-03-26T01:30:19.933Z,0
2017-03-26T01:31:28.821Z,0
2017-03-26T01:32:37.710Z,0
2017-03-26T01:33:47.515Z,0
2017-03-26T01:34:57.387Z,0
2017-03-26T01:36:06.599Z,0
2017-03-26T01:37:16.787Z,0
2017-03-26T01:38:26.648Z,0
2017-03-26T01:39:35.841Z,0
2017-03-26T01:40:45.055Z,0
2017-03-26T01:41:54.596Z,0
2017-03-26T01:43:04.139Z,0
2017-03-26T01:44:13.685Z,0
2017-03-26T01:45:22.625Z,0
2017-03-26T01:46:32.164Z,0
2017-03-26T01:47:42.045Z,0
2017-03-26T01:48:52.247Z,0
2017-03-26T01:50:01.801Z,0
2017-03-26T01:51:11.163Z,0
2017-03-26T01:52:20.380Z,0
2017-03-26T01:53:29.924Z,0
2017-03-26T01:54:39.192Z,0
2017-03-26T01:55:48.731Z,0
2017-03-26T01:56:57.818Z,0
2017-03-26T01:58:07.353Z,0
2017-03-26T01:59:16.570Z,0
2017-03-26T02:00:26.436Z,0
2017-03-26T02:01:35.329Z,0
2017-03-26T02:02:45.769Z,0
2017-03-26T02:03:55.312Z,0
2017-03-26T02:05:04.205Z,0
2017-03-26T02:06:13.450Z,0
2017-03-26T02:07:22.342Z,0
2017-03-26T02:08:32.306Z,0
2017-03-26T02:09:41.244Z,0
2017-03-26T02:10:50.499Z,0
2017-03-26T02:12:00.036Z,0
2017-03-26T02:13:09.577Z,0
2017-03-26T02:14:18.849Z,0
2017-03-26T02:15:28.066Z,0
2017-03-26T02:16:37.281Z,0
2017-03-26T02:17:46.171Z,0
2017-03-26T02:18:56.360Z,0
2017-03-26T02:20:05.954Z,0
2017-03-26T02:21:15.167Z,0
2017-03-26T02:22:24.382Z,0
2017-03-26T02:23:33.598Z,0
2017-03-26T02:24:43.133Z,0
2017-03-26T02:25:52.921Z,0
2017-03-26T02:27:01.807Z,0
2017-03-26T02:28:11.357Z,0
2017-03-26T02:29:20.577Z,0
2017-03-26T02:30:29.797Z,0
2017-03-26T02:31:39.635Z,0
2017-03-26T02:32:49.172Z,0
2017-03-26T02:33:58.393Z,0
2017-03-26T02:35:07.931Z,0
2017-03-26T02:36:17.145Z,0
2017-03-26T02:37:26.842Z,0
2017-03-26T02:38:36.709Z,0
2017-03-26T02:39:46.577Z,0
2017-03-26T02:40:55.790Z,0
2017-03-26T02:42:05.325Z,0
2017-03-26T02:43:14.613Z,0
2017-03-26T02:44:24.157Z,0
2017-03-26T02:45:33.760Z,0
2017-03-26T02:46:42.657Z,0
2017-03-26T02:47:52.199Z,0
2017-03-26T02:49:02.047Z,0
2017-03-26T02:50:11.587Z,0
2017-03-26T02:51:20.473Z,0
2017-03-26T02:52:29.681Z,0
2017-03-26T02:53:38.958Z,0
2017-03-26T02:54:48.268Z,0
2017-03-26T02:55:57.806Z,0
2017-03-26T02:57:06.698Z,0
2017-03-26T02:58:16.242Z,0
2017-03-26T02:59:25.782Z,0
2017-03-26T03:00:35.101Z,0
2017-03-26T03:01:44.028Z,0
2017-03-26T03:02:53.898Z,0
2017-03-26T03:04:03.118Z,0
2017-03-26T03:05:12.663Z,0
2017-03-26T03:06:22.447Z,0
2017-03-26T03:07:31.986Z,0
2017-03-26T03:08:41.858Z,0
2017-03-26T03:09:51.723Z,0
2017-03-26T03:11:00.945Z,0
2017-03-26T03:12:10.959Z,0
2017-03-26T03:13:20.501Z,0
2017-03-26T03:14:29.719Z,0
2017-03-26T03:15:38.612Z,0
2017-03-26T03:16:47.823Z,0
2017-03-26T03:17:57.836Z,0
2017-03-26T03:19:07.698Z,0
2017-03-26T03:20:16.913Z,0
2017-03-26T03:21:26.122Z,0
2017-03-26T03:22:35.674Z,0
2017-03-26T03:23:45.876Z,0
2017-03-26T03:24:55.420Z,0
2017-03-26T03:26:04.638Z,0
2017-03-26T03:27:13.852Z,0
2017-03-26T03:28:23.394Z,0
2017-03-26T03:29:33.412Z,0
2017-03-26T03:30:42.633Z,0
2017-03-26T03:31:51.529Z,0
2017-03-26T03:33:01.393Z,0
2017-03-26T03:34:10.617Z,0
2017-03-26T03:35:19.981Z,0
2017-03-26T03:36:29.200Z,0
2017-03-26T03:37:39.063Z,0
2017-03-26T03:38:48.610Z,0
2017-03-26T03:39:58.482Z,0
2017-03-26T03:41:07.675Z,0
2017-03-26T03:42:17.215Z,0
2017-03-26T03:43:27.451Z,0
2017-03-26T03:44:37.642Z,0
2017-03-26T03:45:46.852Z,0
2017-03-26T03:46:56.113Z,0
2017-03-26T03:48:06.301Z,0
2017-03-26T03:49:16.175Z,0
2017-03-26T03:50:25.390Z,0
2017-03-26T03:51:34.330Z,0
2017-03-26T03:52:43.598Z,0
2017-03-26T03:53:53.465Z,0
2017-03-26T03:55:02.356Z,0
2017-03-26T03:56:11.302Z,0
2017-03-26T03:57:20.200Z,0
2017-03-26T03:58:29.418Z,0
2017-03-26T03:59:38.638Z,0
2017-03-26T04:00:47.854Z,0
2017-03-26T04:01:56.738Z,0
2017-03-26T04:03:06.279Z,0
2017-03-26T04:04:15.643Z,0
2017-03-26T04:05:25.177Z,0
2017-03-26T04:06:34.396Z,0
2017-03-26T04:07:43.609Z,0
2017-03-26T04:08:52.823Z,0
2017-03-26T04:10:02.664Z,0
2017-03-26T04:11:11.601Z,0
2017-03-26T04:12:20.817Z,0
2017-03-26T04:13:30.742Z,0
2017-03-26T04:14:40.612Z,0
2017-03-26T04:15:50.507Z,0
2017-03-26T04:16:59.727Z,0
2017-03-26T04:18:08.941Z,0
2017-03-26T04:19:19.144Z,0
2017-03-26T04:20:28.684Z,0
2017-03-26T04:21:38.147Z,0
2017-03-26T04:22:47.693Z,0
2017-03-26T04:23:57.883Z,0
2017-03-26T04:25:06.774Z,0
2017-03-26T04:26:16.642Z,0
2017-03-26T04:27:26.937Z,0
2017-03-26T04:28:36.808Z,0
2017-03-26T04:29:46.354Z,0
2017-03-26T04:30:55.570Z,0
2017-03-26T04:32:04.783Z,0
2017-03-26T04:33:14.403Z,0
2017-03-26T04:34:24.272Z,0
2017-03-26T04:35:33.816Z,0
2017-03-26T04:36:43.028Z,0
2017-03-26T04:37:52.579Z,0
2017-03-26T04:39:02.776Z,0
2017-03-26T04:40:12.314Z,0
2017-03-26T04:41:21.857Z,0
2017-03-26T04:42:30.745Z,0
2017-03-26T04:43:40.650Z,0
2017-03-26T04:44:49.597Z,4
2017-03-26T04:45:58.810Z,4
2017-03-26T04:47:08.361Z,0
2017-03-26T04:48:17.902Z,0
2017-03-26T04:49:27.120Z,0
2017-03-26T04:50:36.337Z,4
2017-03-26T04:51:45.230Z,4
2017-03-26T04:52:54.445Z,4
2017-03-26T04:54:04.317Z,4
2017-03-26T04:55:13.857Z,8
2017-03-26T04:56:23.591Z,8
2017-03-26T04:57:32.482Z,12
2017-03-26T04:58:42.025Z,12
2017-03-26T04:59:51.573Z,20
2017-03-26T05:01:01.111Z,20
2017-03-26T05:02:10.002Z,24
2017-03-26T05:03:19.221Z,28
2017-03-26T05:04:28.769Z,28
2017-03-26T05:05:37.990Z,36
2017-03-26T05:06:47.209Z,44
2017-03-26T05:07:56.586Z,60
2017-03-26T05:09:06.456Z,72
2017-03-26T05:10:15.992Z,84
2017-03-26T05:11:24.888Z,96
2017-03-26T05:12:34.430Z,112
2017-03-26T05:13:44.124Z,128
2017-03-26T05:14:54.324Z,144
2017-03-26T05:16:03.865Z,152
2017-03-26T05:17:13.740Z,168
2017-03-26T05:18:22.646Z,184
2017-03-26T05:19:32.247Z,200
2017-03-26T05:20:41.472Z,208
2017-03-26T05:21:50.405Z,216
2017-03-26T05:23:00.279Z,220
2017-03-26T05:24:09.172Z,220
2017-03-26T05:25:18.891Z,260
2017-03-26T05:26:27.785Z,312
2017-03-26T05:27:37.328Z,348
2017-03-26T05:28:47.199Z,364
2017-03-26T05:29:57.071Z,392
2017-03-26T05:31:06.907Z,408
2017-03-26T05:32:16.118Z,404
2017-03-26T05:33:25.659Z,516
2017-03-26T05:34:35.526Z,596
2017-03-26T05:35:44.417Z,632
2017-03-26T05:36:54.110Z,620
2017-03-26T05:38:03.329Z,576
2017-03-26T05:39:12.883Z,632
2017-03-26T05:40:22.744Z,708
2017-03-26T05:41:31.953Z,752
2017-03-26T05:42:41.329Z,792
2017-03-26T05:43:51.197Z,848
2017-03-26T05:45:01.065Z,864
2017-03-26T05:46:10.277Z,844
2017-03-26T05:47:19.821Z,816
2017-03-26T05:48:28.776Z,804
2017-03-26T05:49:37.986Z,780
2017-03-26T05:50:46.877Z,788
2017-03-26T05:51:55.831Z,772
2017-03-26T05:53:05.066Z,724
2017-03-26T05:54:14.655Z,760
2017-03-26T05:55:23.546Z,800
2017-03-26T05:56:32.482Z,824
2017-03-26T05:57:41.698Z,864
2017-03-26T05:58:51.567Z,912
2017-03-26T06:00:00.951Z,960
2017-03-26T06:01:10.166Z,1016
2017-03-26T06:02:19.384Z,1036
2017-03-26T06:03:28.602Z,1052
2017-03-26T06:04:38.465Z,1112
2017-03-26T06:05:47.726Z,1200
2017-03-26T06:06:56.612Z,1232
2017-03-26T06:08:05.828Z,1212
2017-03-26T06:09:15.718Z,1160
2017-03-26T06:10:25.585Z,1144
2017-03-26T06:11:34.901Z,1160
2017-03-26T06:12:44.114Z,1172
2017-03-26T06:13:54.310Z,1204
2017-03-26T06:15:03.856Z,1264
2017-03-26T06:16:13.069Z,1372
2017-03-26T06:17:22.430Z,1468
2017-03-26T06:18:31.650Z,1580
2017-03-26T06:19:41.518Z,1672
2017-03-26T06:20:51.700Z,1688
2017-03-26T06:22:01.249Z,1700
2017-03-26T06:23:10.769Z,1688
2017-03-26T06:24:20.633Z,1736
2017-03-26T06:25:30.171Z,1936
2017-03-26T06:26:39.055Z,2156
2017-03-26T06:27:48.271Z,2316
2017-03-26T06:28:57.859Z,2356
2017-03-26T06:30:07.073Z,2376
2017-03-26T06:31:16.291Z,2352
2017-03-26T06:32:25.510Z,2316
2017-03-26T06:33:34.732Z,2256
2017-03-26T06:34:44.584Z,2208
2017-03-26T06:35:54.452Z,2232
2017-03-26T06:37:04.005Z,2248
2017-03-26T06:38:12.905Z,2208
2017-03-26T06:39:22.440Z,2256
2017-03-26T06:40:31.805Z,2376
2017-03-26T06:41:41.345Z,2512
2017-03-26T06:42:50.887Z,2540
2017-03-26T06:44:00.429Z,2516
2017-03-26T06:45:09.642Z,2604
2017-03-26T06:46:19.010Z,2640
2017-03-26T06:47:28.223Z,2636
2017-03-26T06:48:37.452Z,2684
2017-03-26T06:49:46.997Z,2756
2017-03-26T06:50:56.217Z,2756
2017-03-26T06:52:05.509Z,2676
2017-03-26T06:53:14.734Z,2684
2017-03-26T06:54:23.952Z,2708
2017-03-26T06:55:32.848Z,2732
2017-03-26T06:56:42.064Z,2756
2017-03-26T06:57:51.906Z,2772
2017-03-26T06:59:01.450Z,2732
2017-03-26T07:00:10.341Z,2764
2017-03-26T07:01:19.231Z,2792
2017-03-26T07:02:28.117Z,2748
2017-03-26T07:03:37.164Z,2704
2017-03-26T07:04:46.053Z,2716
2017-03-26T07:05:54.939Z,2852
2017-03-26T07:07:03.848Z,3064
2017-03-26T07:08:13.711Z,3320
2017-03-26T07:09:22.606Z,3536
2017-03-26T07:10:32.146Z,3632
2017-03-26T07:11:41.050Z,3604
2017-03-26T07:12:50.593Z,3432
2017-03-26T07:14:00.135Z,3264
2017-03-26T07:15:10.248Z,3116
2017-03-26T07:16:19.464Z,3116
2017-03-26T07:17:28.366Z,3196
2017-03-26T07:18:37.927Z,3256
2017-03-26T07:19:47.799Z,3308
2017-03-26T07:20:56.839Z,3344
2017-03-26T07:22:06.058Z,3316
2017-03-26T07:23:15.603Z,3408
2017-03-26T07:24:24.819Z,3568
2017-03-26T07:25:35.015Z,3708
2017-03-26T07:26:44.380Z,3844
2017-03-26T07:27:54.250Z,3892
2017-03-26T07:29:04.121Z,3744
2017-03-26T07:30:13.662Z,3560
2017-03-26T07:31:23.209Z,3428
2017-03-26T07:32:32.675Z,3308
2017-03-26T07:33:42.545Z,3240
2017-03-26T07:34:52.088Z,3248
2017-03-26T07:36:00.982Z,3312
2017-03-26T07:37:10.198Z,3376
2017-03-26T07:38:19.574Z,3408
2017-03-26T07:39:28.791Z,3440
2017-03-26T07:40:38.013Z,3576
2017-03-26T07:41:46.914Z,3584
2017-03-26T07:42:56.785Z,3488
2017-03-26T07:44:06.382Z,3440
2017-03-26T07:45:15.924Z,3464
2017-03-26T07:46:24.818Z,3516
2017-03-26T07:47:34.033Z,3604
2017-03-26T07:48:43.577Z,3692
2017-03-26T07:49:52.798Z,3684
2017-03-26T07:51:02.015Z,3616
2017-03-26T07:52:10.906Z,3548
2017-03-26T07:53:20.121Z,3500
2017-03-26T07:54:29.666Z,3936
2017-03-26T07:55:39.132Z,4352
2017-03-26T07:56:48.346Z,4716
2017-03-26T07:57:58.221Z,5012
2017-03-26T07:59:07.438Z,4980
2017-03-26T08:00:16.329Z,4596
2017-03-26T08:01:25.271Z,4392
2017-03-26T08:02:34.170Z,4648
2017-03-26T08:03:44.055Z,5132
2017-03-26T08:04:53.647Z,5512
2017-03-26T08:06:02.557Z,5584
2017-03-26T08:07:11.698Z,5640
2017-03-26T08:08:20.594Z,5780
2017-03-26T08:09:29.813Z,5712
2017-03-26T08:10:38.711Z,5804
2017-03-26T08:11:48.258Z,5920
2017-03-26T08:12:57.775Z,5984
2017-03-26T08:14:06.997Z,5944
2017-03-26T08:15:16.542Z,5872
2017-03-26T08:16:25.757Z,5940
2017-03-26T08:17:35.321Z,6000
2017-03-26T08:18:45.291Z,6112
2017-03-26T08:19:54.186Z,6292
2017-03-26T08:21:03.733Z,6344
2017-03-26T08:22:12.945Z,6476
2017-03-26T08:23:22.175Z,6492
2017-03-26T08:24:31.548Z,6760
2017-03-26T08:25:40.773Z,6840
2017-03-26T08:26:49.660Z,6916
2017-03-26T08:27:59.205Z,7056
2017-03-26T08:29:08.747Z,7080
2017-03-26T08:30:18.262Z,7292
2017-03-26T08:31:27.476Z,7432
2017-03-26T08:32:36.690Z,7348
2017-03-26T08:33:46.560Z,7296
2017-03-26T08:34:56.107Z,7280
2017-03-26T08:36:06.126Z,7140
2017-03-26T08:37:15.670Z,7156
2017-03-26T08:38:24.565Z,7308
2017-03-26T08:39:33.780Z,7440
2017-03-26T08:40:42.996Z,7356
2017-03-26T08:41:52.595Z,7044
2017-03-26T08:43:02.153Z,6812
2017-03-26T08:44:12.023Z,6472
2017-03-26T08:45:21.887Z,6212
2017-03-26T08:46:31.104Z,6108
2017-03-26T08:47:40.326Z,6172
2017-03-26T08:48:50.202Z,6212
2017-03-26T08:50:00.394Z,6156
2017-03-26T08:51:09.285Z,6012
2017-03-26T08:52:18.179Z,5868
2017-03-26T08:53:27.823Z,5684
2017-03-26T08:54:37.048Z,5424
2017-03-26T08:55:46.267Z,5272
2017-03-26T08:56:55.484Z,5244
2017-03-26T08:58:04.704Z,5256
2017-03-26T08:59:14.300Z,5328
2017-03-26T09:00:23.523Z,5392
2017-03-26T09:01:32.756Z,5480
2017-03-26T09:02:42.302Z,5516
2017-03-26T09:03:51.862Z,5532
2017-03-26T09:05:01.502Z,5684
2017-03-26T09:06:10.724Z,5960
2017-03-26T09:07:19.631Z,6132
2017-03-26T09:08:29.196Z,6208
2017-03-26T09:09:38.429Z,6296
2017-03-26T09:10:47.732Z,6456
2017-03-26T09:11:56.984Z,6536
2017-03-26T09:13:06.870Z,6520
2017-03-26T09:14:15.775Z,6472
2017-03-26T09:15:25.002Z,6424
2017-03-26T09:16:34.201Z,6392
2017-03-26T09:17:43.757Z,6404
2017-03-26T09:18:53.323Z,6444
2017-03-26T09:20:02.557Z,6476
2017-03-26T09:21:11.454Z,6536
2017-03-26T09:22:20.408Z,6568
2017-03-26T09:23:29.313Z,6628
2017-03-26T09:24:38.866Z,6636
2017-03-26T09:25:47.769Z,6700
2017-03-26T09:26:56.996Z,6828
2017-03-26T09:28:06.385Z,7040
2017-03-26T09:29:15.619Z,7196
2017-03-26T09:30:24.858Z,7208
2017-03-26T09:31:34.079Z,7200
2017-03-26T09:32:42.985Z,7324
2017-03-26T09:33:53.022Z,7480
2017-03-26T09:35:02.636Z,7464
2017-03-26T09:36:11.551Z,7344
2017-03-26T09:37:20.455Z,7176
2017-03-26T09:38:29.679Z,6832
2017-03-26T09:39:39.048Z,6632
2017-03-26T09:40:48.318Z,7028
2017-03-26T09:41:57.216Z,7628
2017-03-26T09:43:06.448Z,7656
2017-03-26T09:44:15.679Z,7684
2017-03-26T09:45:25.217Z,7596
2017-03-26T09:46:34.775Z,7420
2017-03-26T09:47:43.673Z,7300
2017-03-26T09:48:53.295Z,7604
2017-03-26T09:50:02.838Z,7868
2017-03-26T09:51:12.391Z,8188
2017-03-26T09:52:22.276Z,8268
2017-03-26T09:53:31.505Z,8180
2017-03-26T09:54:40.723Z,8052
2017-03-26T09:55:50.271Z,7960
2017-03-26T09:56:59.962Z,7740
2017-03-26T09:58:08.892Z,8104
2017-03-26T09:59:19.084Z,7976
2017-03-26T10:00:28.651Z,7860
2017-03-26T10:01:37.543Z,7820
2017-03-26T10:02:46.714Z,7684
2017-03-26T10:03:55.938Z,7836
2017-03-26T10:05:05.463Z,7892
2017-03-26T10:06:14.678Z,8132
2017-03-26T10:07:23.899Z,8316
2017-03-26T10:08:33.921Z,8544
2017-03-26T10:09:43.283Z,8588
2017-03-26T10:10:52.239Z,8420
2017-03-26T10:12:01.783Z,8128
2017-03-26T10:13:10.678Z,7816
2017-03-26T10:14:20.234Z,7708
2017-03-26T10:15:29.450Z,7824
2017-03-26T10:16:38.698Z,8236
2017-03-26T10:17:47.602Z,8440
2017-03-26T10:18:57.530Z,8424
2017-03-26T10:20:06.576Z,8244
2017-03-26T10:21:15.470Z,8232
2017-03-26T10:22:24.365Z,8256
2017-03-26T10:23:33.260Z,8428
2017-03-26T10:24:42.211Z,8688
2017-03-26T10:25:51.582Z,8912
2017-03-26T10:27:00.802Z,8940
2017-03-26T10:28:10.344Z,8852
2017-03-26T10:29:19.562Z,8812
2017-03-26T10:30:29.445Z,8860
2017-03-26T10:31:39.132Z,9048
2017-03-26T10:32:48.670Z,9248
2017-03-26T10:33:58.225Z,9500
2017-03-26T10:35:07.765Z,9692
2017-03-26T10:36:17.033Z,9880
2017-03-26T10:37:26.305Z,10092
2017-03-26T10:38:35.204Z,10144
2017-03-26T10:39:44.420Z,10164
2017-03-26T10:40:53.641Z,10180
2017-03-26T10:42:02.542Z,10176
2017-03-26T10:43:12.190Z,10156
2017-03-26T10:44:22.068Z,10156
2017-03-26T10:45:31.614Z,10296
2017-03-26T10:46:40.851Z,10472
2017-03-26T10:47:49.739Z,10700
2017-03-26T10:48:58.956Z,10904
2017-03-26T10:50:08.175Z,10904
2017-03-26T10:51:17.395Z,10596
2017-03-26T10:52:26.608Z,10416
2017-03-26T10:53:35.498Z,10284
2017-03-26T10:54:44.886Z,10296
2017-03-26T10:55:53.842Z,10256
2017-03-26T10:57:03.128Z,10380
2017-03-26T10:58:12.674Z,10388
2017-03-26T10:59:22.222Z,10272
2017-03-26T11:00:31.443Z,10132
2017-03-26T11:01:40.985Z,9920
2017-03-26T11:02:50.218Z,9684
2017-03-26T11:03:59.436Z,9568
2017-03-26T11:05:08.330Z,9652
2017-03-26T11:06:17.222Z,9768
2017-03-26T11:07:26.446Z,9800
2017-03-26T11:08:35.668Z,9660
2017-03-26T11:09:45.238Z,9472
2017-03-26T11:10:54.129Z,9344
2017-03-26T11:12:03.728Z,9212
2017-03-26T11:13:13.594Z,8964
2017-03-26T11:14:22.807Z,8892
2017-03-26T11:15:32.026Z,8728
2017-03-26T11:16:41.242Z,8696
2017-03-26T11:17:50.789Z,8764
2017-03-26T11:19:00.003Z,8912
2017-03-26T11:20:09.552Z,9104
2017-03-26T11:21:18.446Z,9116
2017-03-26T11:22:27.666Z,9076
2017-03-26T11:23:37.543Z,9100
2017-03-26T11:24:46.783Z,9036
2017-03-26T11:25:56.000Z,9132
2017-03-26T11:27:04.890Z,8972
2017-03-26T11:28:14.757Z,8920
2017-03-26T11:29:24.113Z,8972
2017-03-26T11:30:33.333Z,9036
2017-03-26T11:31:42.552Z,9088
2017-03-26T11:32:51.446Z,9012
2017-03-26T11:34:01.319Z,8940
2017-03-26T11:35:10.638Z,8832
2017-03-26T11:36:19.852Z,8740
2017-03-26T11:37:29.068Z,8600
2017-03-26T11:38:38.935Z,8508
2017-03-26T11:39:48.177Z,9056
2017-03-26T11:40:57.115Z,9208
2017-03-26T11:42:06.050Z,9100
2017-03-26T11:43:15.596Z,9160
2017-03-26T11:44:25.141Z,9080
2017-03-26T11:45:34.359Z,9116
2017-03-26T11:46:43.350Z,8452
2017-03-26T11:47:52.567Z,8564
2017-03-26T11:49:01.785Z,8432
2017-03-26T11:50:11.328Z,9668
2017-03-26T11:51:20.543Z,10432
2017-03-26T11:52:30.061Z,10876
2017-03-26T11:53:39.604Z,11332
2017-03-26T11:54:49.148Z,11476
2017-03-26T11:55:58.368Z,12012
2017-03-26T11:57:07.261Z,12416
2017-03-26T11:58:17.008Z,12740
2017-03-26T11:59:26.563Z,13040
2017-03-26T12:00:36.106Z,13420
2017-03-26T12:01:45.332Z,13468
2017-03-26T12:02:54.550Z,13464
2017-03-26T12:04:03.922Z,13600
2017-03-26T12:05:14.111Z,13440
2017-03-26T12:06:23.655Z,13308
2017-03-26T12:07:32.544Z,13492
2017-03-26T12:08:42.420Z,14232
2017-03-26T12:09:51.694Z,14200
2017-03-26T12:11:01.558Z,14224
2017-03-26T12:12:11.429Z,14444
2017-03-26T12:13:20.651Z,14564
2017-03-26T12:14:30.526Z,14452
2017-03-26T12:15:39.571Z,14216
2017-03-26T12:16:48.797Z,14212
2017-03-26T12:17:58.667Z,14040
2017-03-26T12:19:08.228Z,13924
2017-03-26T12:20:17.452Z,14028
2017-03-26T12:21:26.497Z,14168
2017-03-26T12:22:35.392Z,14412
2017-03-26T12:23:45.591Z,14768
2017-03-26T12:24:55.461Z,15084
2017-03-26T12:26:05.671Z,16512
2017-03-26T12:27:14.939Z,18624
2017-03-26T12:28:24.486Z,20256
2017-03-26T12:29:33.393Z,20832
2017-03-26T12:30:42.614Z,20672
2017-03-26T12:31:51.832Z,20160
2017-03-26T12:33:01.679Z,19616
2017-03-26T12:34:10.903Z,18944
2017-03-26T12:35:19.808Z,18240
2017-03-26T12:36:29.025Z,17920
2017-03-26T12:37:38.245Z,17824
2017-03-26T12:38:47.726Z,17664
2017-03-26T12:39:57.273Z,17440
2017-03-26T12:41:06.820Z,17344
2017-03-26T12:42:16.043Z,17696
2017-03-26T12:43:25.587Z,17792
2017-03-26T12:44:35.620Z,17312
2017-03-26T12:45:45.165Z,16992
2017-03-26T12:46:54.390Z,17056
2017-03-26T12:48:04.596Z,17504
2017-03-26T12:49:14.148Z,18304
2017-03-26T12:50:23.749Z,19296
2017-03-26T12:51:32.650Z,19680
2017-03-26T12:52:42.207Z,19712
2017-03-26T12:53:52.081Z,19936
2017-03-26T12:55:01.662Z,20864
2017-03-26T12:56:11.043Z,21696
2017-03-26T12:57:19.937Z,23136
2017-03-26T12:58:28.835Z,22880
2017-03-26T12:59:38.062Z,21184
2017-03-26T13:00:47.288Z,20064
2017-03-26T13:01:56.331Z,19456
2017-03-26T13:03:05.558Z,17920
2017-03-26T13:04:15.111Z,15424
2017-03-26T13:05:24.355Z,16576
2017-03-26T13:06:34.244Z,16640
2017-03-26T13:07:43.850Z,16768
2017-03-26T13:08:53.071Z,16928
2017-03-26T13:10:02.302Z,16768
2017-03-26T13:11:11.849Z,16008
2017-03-26T13:12:20.745Z,15780
2017-03-26T13:13:29.655Z,15992
2017-03-26T13:14:39.203Z,15948
2017-03-26T13:15:48.755Z,17024
2017-03-26T13:16:57.974Z,16864
2017-03-26T13:18:07.844Z,17120
2017-03-26T13:19:17.398Z,17600
2017-03-26T13:20:26.945Z,18112
2017-03-26T13:21:36.162Z,18208
2017-03-26T13:22:45.714Z,17920
2017-03-26T13:23:55.266Z,17856
2017-03-26T13:25:04.640Z,17920
2017-03-26T13:26:14.185Z,17920
2017-03-26T13:27:23.080Z,17760
2017-03-26T13:28:33.280Z,17632
2017-03-26T13:29:42.829Z,17952
2017-03-26T13:30:51.831Z,18784
2017-03-26T13:32:01.064Z,20160
2017-03-26T13:33:10.618Z,20992
2017-03-26T13:34:20.505Z,21120
2017-03-26T13:35:30.053Z,20032
2017-03-26T13:36:39.748Z,19200
2017-03-26T13:37:49.298Z,18848
2017-03-26T13:38:58.525Z,19456
2017-03-26T13:40:07.743Z,20128
2017-03-26T13:41:17.293Z,21664
2017-03-26T13:42:26.491Z,42976
2017-03-26T13:43:36.891Z,26240
2017-03-26T13:44:45.807Z,25856
2017-03-26T13:45:55.021Z,28800
2017-03-26T13:47:04.566Z,31872
2017-03-26T13:48:14.521Z,46944
2017-03-26T13:49:24.766Z,52416
2017-03-26T13:50:34.315Z,29088
2017-03-26T13:51:43.212Z,29728
2017-03-26T13:52:52.759Z,27712
2017-03-26T13:54:02.351Z,58208
2017-03-26T13:55:11.605Z,53568
2017-03-26T13:56:21.224Z,58528
2017-03-26T13:57:30.448Z,54112
2017-03-26T13:58:39.350Z,43520
2017-03-26T13:59:48.301Z,42944
2017-03-26T14:00:57.201Z,61280
2017-03-26T14:02:07.143Z,58528
2017-03-26T14:03:16.937Z,58432
2017-03-26T14:04:26.896Z,73568
2017-03-26T14:05:36.553Z,73856
2017-03-26T14:06:45.782Z,60960
2017-03-26T14:07:55.021Z,31776
2017-03-26T14:09:04.349Z,52448
2017-03-26T14:10:13.491Z,76032
2017-03-26T14:11:24.252Z,76832
2017-03-26T14:12:33.593Z,74208
2017-03-26T14:13:43.161Z,74432
2017-03-26T14:14:52.397Z,75520
2017-03-26T14:16:02.275Z,78560
2017-03-26T14:17:11.985Z,79680
2017-03-26T14:18:21.543Z,71968
2017-03-26T14:19:30.786Z,73440
2017-03-26T14:20:40.339Z,75584
2017-03-26T14:21:49.247Z,76064
2017-03-26T14:22:59.282Z,75584
2017-03-26T14:24:08.846Z,77248
2017-03-26T14:25:18.404Z,73408
2017-03-26T14:26:27.314Z,73408
2017-03-26T14:27:36.873Z,74912
2017-03-26T14:28:46.488Z,74688
2017-03-26T14:29:55.725Z,77472
2017-03-26T14:31:04.959Z,77056
2017-03-26T14:32:13.874Z,75648
2017-03-26T14:33:22.795Z,75328
2017-03-26T14:34:31.963Z,75232
2017-03-26T14:35:41.197Z,74816
2017-03-26T14:36:50.110Z,73152
2017-03-26T14:37:59.673Z,69536
2017-03-26T14:39:09.246Z,69632
2017-03-26T14:40:18.533Z,69632
2017-03-26T14:41:27.440Z,70912
2017-03-26T14:42:36.361Z,67008
2017-03-26T14:43:45.938Z,56896
2017-03-26T14:44:55.501Z,58976
2017-03-26T14:46:04.841Z,60640
2017-03-26T14:47:14.075Z,55968
2017-03-26T14:48:23.960Z,59328
2017-03-26T14:49:33.846Z,57568
2017-03-26T14:50:43.077Z,42560
2017-03-26T14:51:51.983Z,44992
2017-03-26T14:53:01.217Z,56288
2017-03-26T14:54:10.781Z,56960
2017-03-26T14:55:20.341Z,51264
2017-03-26T14:56:29.899Z,43296
2017-03-26T14:57:39.102Z,41376
2017-03-26T14:58:48.386Z,34720
2017-03-26T14:59:57.940Z,39488
2017-03-26T15:01:07.496Z,39936
2017-03-26T15:02:16.406Z,31808
2017-03-26T15:03:25.790Z,28384
2017-03-26T15:04:34.880Z,28608
2017-03-26T15:05:43.797Z,33152
2017-03-26T15:06:52.709Z,32672
2017-03-26T15:08:02.600Z,28960
2017-03-26T15:09:12.198Z,31136
2017-03-26T15:10:21.767Z,36032
2017-03-26T15:11:30.679Z,35552
2017-03-26T15:12:39.591Z,33984
2017-03-26T15:13:49.161Z,35840
2017-03-26T15:14:58.381Z,29760
2017-03-26T15:16:07.297Z,27584
2017-03-26T15:17:16.865Z,33632
2017-03-26T15:18:25.783Z,33696
2017-03-26T15:19:35.022Z,32640
2017-03-26T15:20:44.561Z,36480
2017-03-26T15:21:53.479Z,39360
2017-03-26T15:23:02.387Z,36480
2017-03-26T15:24:11.626Z,35872
2017-03-26T15:25:20.542Z,34240
2017-03-26T15:26:29.857Z,33056
2017-03-26T15:27:38.772Z,35776
2017-03-26T15:28:48.662Z,46368
2017-03-26T15:29:58.228Z,44320
2017-03-26T15:31:07.463Z,47520
2017-03-26T15:32:16.531Z,47264
2017-03-26T15:33:25.778Z,44960
2017-03-26T15:34:35.016Z,47648
2017-03-26T15:35:43.932Z,52224
2017-03-26T15:36:53.209Z,49312
2017-03-26T15:38:02.595Z,45856
2017-03-26T15:39:11.845Z,48160
2017-03-26T15:40:20.764Z,50624
2017-03-26T15:41:29.680Z,55136
2017-03-26T15:42:38.927Z,57184
2017-03-26T15:43:48.735Z,59168
2017-03-26T15:44:57.643Z,58592
2017-03-26T15:46:06.871Z,58528